• Join FlightAware (Why Join?)
  • Login
  • US Flag 
12:33AM EDT


 

Airport Tracker/Info


-or-


 

Live Flight TrackerFlight Track Log ✈ UAL4625 ✈ 27-Sep-2013 ✈ KTYS - KORD

Flight Track Log - Related Links

Times and Time Zones

All times are in EDT time to prevent confusion due to time zone crossing. See the UAL4625 flight status page for this flight to view local times or setup timezone preferences in your user account.

Time Position Orientation Groundspeed Altitude Reporting Facility
EDT Latitude Longitude Course Direction KTS MPH feet Rate Location/Type
06:04AM 35.8164 -84.0772 19° North 197 227 4,300  Level Atlanta Center
06:05AM 35.8872 -84.0900 352° North 202 232 6,000 2,100 Climbing Atlanta Center
06:06AM 36.0956 -84.1588 345° North  Level Estimated
06:06AM 35.9603 -84.1003 354° North 234 269 8,600  Level Atlanta Center
06:07AM 36.1668 -84.2002 349° North  Level Estimated
06:07AM 36.0375 -84.1106 354° North 263 303 10,300  Level Atlanta Center
06:08AM 36.2411 -84.1684 19° North  Level FlightAware Approximate
06:08AM 36.1567 -84.1269 354° North 315 362 11,600  Level Indianapolis Center
06:09AM 36.2522 -84.1425 353° North 341 392 13,000 1,320 Climbing Indianapolis Center
06:10AM 36.3467 -84.1583 352° North 343 395 14,300 1,320 Climbing Indianapolis Center
06:11AM 36.4408 -84.1728 353° North 343 395 15,700 1,380 Climbing Indianapolis Center
06:12AM 36.5439 -84.1889 353° North 338 389 17,200 1,080 Climbing Indianapolis Center
06:13AM 36.6389 -84.2036 353° North 339 390 17,900 840 Climbing Indianapolis Center
06:14AM 36.7367 -84.2208 352° North 350 403 18,900 960 Climbing Indianapolis Center
06:15AM 36.8350 -84.2358 353° North 352 405 19,900 900 Climbing Indianapolis Center
06:16AM 36.9347 -84.2522 353° North 358 412 20,800 900 Climbing Indianapolis Center
06:17AM 37.0367 -84.2689 353° North 365 420 21,800 960 Climbing Indianapolis Center
06:18AM 37.1392 -84.2861 352° North 369 425 22,800 900 Climbing Indianapolis Center
06:19AM 37.2406 -84.3028 353° North 367 422 23,700 900 Climbing Indianapolis Center
06:20AM 37.3436 -84.3206 352° North 370 426 24,700 900 Climbing Indianapolis Center
06:22AM 37.4453 -84.3364 353° North 368 423 25,600 900 Climbing Indianapolis Center
06:23AM 37.5450 -84.3581 350° North 364 419 26,600 900 Climbing Indianapolis Center
06:24AM 37.6431 -84.3997 341° North 372 428 27,500 900 Climbing Indianapolis Center
06:25AM 37.7375 -84.4400 341° North 362 417 28,500 900 Climbing Indianapolis Center
06:26AM 37.8325 -84.4819 341° North 360 414 29,400 900 Climbing Indianapolis Center
06:27AM 37.9275 -84.5233 341° North 360 414 30,400 900 Climbing Indianapolis Center
06:28AM 38.0219 -84.5667 340° North 360 414 31,300 900 Climbing Indianapolis Center
06:29AM 38.1192 -84.6083 341° North 364 419 32,300 900 Climbing Indianapolis Center
06:30AM 38.2153 -84.6489 342° North 365 420 33,200 900 Climbing Indianapolis Center
06:31AM 38.3133 -84.6911 341° North 367 422 34,200 900 Climbing Indianapolis Center
06:32AM 38.4108 -84.7322 342° North 368 423 35,100 840 Climbing Indianapolis Center
06:33AM 38.5064 -84.7753 341° North 365 420 36,000 420 Climbing Indianapolis Center
06:34AM 38.6206 -84.8253 341° North 370 426 36,000  Level Indianapolis Center
06:35AM 38.7114 -84.8672 340° North 385 443 36,000  Level Indianapolis Center
06:36AM 38.8144 -84.9119 341° North 392 451 36,000  Level Indianapolis Center
06:37AM 38.9156 -84.9572 341° North 388 447 36,000  Level Indianapolis Center
06:38AM 39.0161 -85.0019 341° North 386 444 36,000 -300 Level Indianapolis Center
06:39AM 39.1158 -85.0472 341° North 383 441 35,400 -1,080 Descending Indianapolis Center
06:40AM 39.2169 -85.0931 341° North 385 443 33,900 -1,440 Descending Indianapolis Center
06:41AM 39.3192 -85.1389 341° North 389 448 32,500 -1,800 Descending Indianapolis Center
06:42AM 39.4422 -85.1956 340° North 391 450 30,300 -2,160 Descending Indianapolis Center
06:43AM 39.5450 -85.2411 341° North 393 452 28,200 -1,200 Descending Indianapolis Center
06:44AM 39.6497 -85.2892 341° North 398 458 28,000 -300 Descending Indianapolis Center
06:45AM 39.7564 -85.3372 341° North 406 467 27,600 -660 Descending Indianapolis Center
06:46AM 39.8633 -85.3872 340° North 410 472 26,700 -840 Descending Indianapolis Center
06:47AM 39.9697 -85.4350 341° North 409 471 26,000 -360 Descending Indianapolis Center
06:48AM 40.0781 -85.4856 340° North 414 476 26,000  Level Indianapolis Center
06:49AM 40.1881 -85.5361 341° North 420 483 26,000  Level Indianapolis Center
06:50AM 40.2992 -85.5883 340° North 426 490 26,000  Level Indianapolis Center
06:51AM 40.3767 -85.6578 326° Northwest 426 490 26,000 -360 Level Chicago Center
06:52AM 40.4611 -85.7672 315° West 430 495 25,400 -840 Descending Chicago Center
06:53AM 40.5444 -85.8739 316° Northwest 424 488 24,400 -1,020 Descending Chicago Center
06:54AM 40.6283 -85.9817 316° Northwest 424 488 23,400 -1,080 Descending Chicago Center
06:55AM 40.7169 -86.0975 315° West 424 488 22,300 -720 Descending Chicago Center
06:56AM 40.8008 -86.2108 314° West 428 493 22,000 -180 Descending Chicago Center
06:57AM 40.8858 -86.3186 316° Northwest 424 488 22,000  Level Chicago Center
06:58AM 40.9697 -86.4306 315° West 429 494 22,000 -60 Level Chicago Center
06:59AM 41.0564 -86.5433 316° Northwest 434 499 21,900 -780 Descending Chicago Center
07:00AM 41.1414 -86.6547 315° West 429 494 20,500 -1,440 Descending Chicago Center
07:01AM 41.2200 -86.7617 314° West 424 488 19,000 -1,680 Descending Chicago Center
07:02AM 41.2989 -86.8667 315° West 409 471 17,200 -2,100 Descending Chicago Center
07:03AM 41.3753 -86.9692 315° West 396 456 14,800 -2,880 Descending Chicago Center
07:04AM 41.4658 -87.0906 315° West 389 448 11,400 -1,920 Descending Chicago Center
07:05AM 41.5350 -87.1878 314° West 368 423 11,000 -480 Descending Chicago Center
07:06AM 41.5989 -87.2903 310° West 363 418 10,500 -540 Descending Chicago Center
07:07AM 41.6628 -87.3931 310° West 363 418 10,000 -300 Descending Chicago Center
07:08AM 41.7247 -87.4942 309° West 356 410 10,000 -60 Level Chicago Center
07:09AM 41.7853 -87.5894 310° West 339 390 9,900 -1,080 Descending Chicago Center
07:10AM 41.8353 -87.6689 310° West 289 333 7,900 -1,440 Descending Chicago Center
07:11AM 41.9167 -87.7167 336° Northwest 285 328 7,000 -1,020 Descending Chicago TRACON
07:12AM 41.9833 -87.7167 360° North 270 311 5,900 -1,440 Descending Chicago TRACON
07:13AM 42.0667 -87.7333 352° North 235 270 4,000 -1,380 Descending Chicago TRACON
07:14AM 42.0667 -87.8000 270° West 186 214 2,800 -1,020 Descending Chicago TRACON
07:15AM 42.0500 -87.8500 246° West 144 166 1,800 -900 Descending Chicago TRACON
07:16AM 42.0333 -87.8667 217° Southwest 124 143 1,400 -720 Descending Chicago TRACON
07:16AM 42.0000 -87.8833 200° South 127 146 800 -780 Descending Chicago TRACON